Fort Myers, Florida
Current Conditions -  °F | °C
As of 11:53 AM on Friday 28 Nov 2014 (Local Time) from KFMY Reporting Station
Clear Clear  
Wind Chill: 16°   Ceiling: Unl
Heat Index: 16°   Visibility: 10mi
Dew Point:   Wind: 10mph
Humidity: 44%   Direction: 30°NNE
Pressure: 30.27"   Gusts: NA
Location:  26.64°N, 81.87°W
Report Text: KFMY 281653Z 03009KT 10SM CLR 16/04 A3027 RMK AO2 SLP253 T01610039
Loading
Personal Weather Stations






























Interactive Weather Map New forecast layout! Learn more

10-Day Weather Forecast

Advertisements
Track Severe Weather on mobile